sensor_id;sensor_type;location;lat;lon;timestamp;P1;durP1;ratioP1;P2;durP2;ratioP2
2458;SDS011;1241;50.920;6.936;2023-04-01T00:00:18;28.83;;;22.80;;
2458;SDS011;1241;50.920;6.936;2023-04-01T00:02:46;27.55;;;20.13;;
2458;SDS011;1241;50.920;6.936;2023-04-01T00:05:12;22.98;;;18.10;;
2458;SDS011;1241;50.920;6.936;2023-04-01T00:07:39;11.47;;;9.30;;
2458;SDS011;1241;50.920;6.936;2023-04-01T00:10:06;43.67;;;33.53;;
2458;SDS011;1241;50.920;6.936;2023-04-01T00:12:33;33.58;;;25.13;;
2458;SDS011;1241;50.920;6.936;2023-04-01T00:14:59;23.98;;;19.23;;
2458;SDS011;1241;50.920;6.936;2023-04-01T00:17:25;17.88;;;14.20;;
2458;SDS011;1241;50.920;6.936;2023-04-01T00:22:19;24.70;;;16.80;;
2458;SDS011;1241;50.920;6.936;2023-04-01T00:24:45;29.00;;;21.75;;
2458;SDS011;1241;50.920;6.936;2023-04-01T00:27:11;24.00;;;17.48;;
2458;SDS011;1241;50.920;6.936;2023-04-01T00:29:37;24.02;;;18.58;;
2458;SDS011;1241;50.920;6.936;2023-04-01T00:32:03;23.23;;;18.60;;
2458;SDS011;1241;50.920;6.936;2023-04-01T00:34:29;28.73;;;24.00;;
2458;SDS011;1241;50.920;6.936;2023-04-01T00:36:54;21.23;;;16.67;;
2458;SDS011;1241;50.920;6.936;2023-04-01T00:39:20;34.88;;;23.30;;
2458;SDS011;1241;50.920;6.936;2023-04-01T00:41:46;18.83;;;15.40;;
2458;SDS011;1241;50.920;6.936;2023-04-01T00:44:33;27.48;;;21.30;;
2458;SDS011;1241;50.920;6.936;2023-04-01T00:47:01;17.77;;;11.95;;
2458;SDS011;1241;50.920;6.936;2023-04-01T00:49:31;19.20;;;14.70;;
2458;SDS011;1241;50.920;6.936;2023-04-01T00:52:03;17.77;;;13.60;;
2458;SDS011;1241;50.920;6.936;2023-04-01T00:54:31;26.85;;;20.05;;
2458;SDS011;1241;50.920;6.936;2023-04-01T00:57:08;26.25;;;18.90;;
2458;SDS011;1241;50.920;6.936;2023-04-01T00:59:39;34.10;;;25.38;;
2458;SDS011;1241;50.920;6.936;2023-04-01T01:02:09;13.90;;;11.70;;
2458;SDS011;1241;50.920;6.936;2023-04-01T01:04:36;23.63;;;17.48;;
2458;SDS011;1241;50.920;6.936;2023-04-01T01:10:02;29.17;;;22.00;;
2458;SDS011;1241;50.920;6.936;2023-04-01T01:15:26;24.13;;;17.10;;
2458;SDS011;1241;50.920;6.936;2023-04-01T01:29:13;23.80;;;17.98;;
2458;SDS011;1241;50.920;6.936;2023-04-01T01:37:38;20.70;;;15.80;;
2458;SDS011;1241;50.920;6.936;2023-04-01T01:40:07;9.77;;;7.50;;
2458;SDS011;1241;50.920;6.936;2023-04-01T01:42:38;32.72;;;22.83;;
2458;SDS011;1241;50.920;6.936;2023-04-01T01:45:07;26.35;;;19.65;;
2458;SDS011;1241;50.920;6.936;2023-04-01T01:47:35;25.25;;;18.75;;
2458;SDS011;1241;50.920;6.936;2023-04-01T01:50:03;20.00;;;15.23;;
2458;SDS011;1241;50.920;6.936;2023-04-01T01:52:31;18.10;;;12.82;;
2458;SDS011;1241;50.920;6.936;2023-04-01T01:54:57;21.73;;;16.35;;
2458;SDS011;1241;50.920;6.936;2023-04-01T01:57:31;29.55;;;21.95;;
2458;SDS011;1241;50.920;6.936;2023-04-01T02:00:08;16.17;;;11.63;;
2458;SDS011;1241;50.920;6.936;2023-04-01T02:02:40;17.27;;;13.05;;
2458;SDS011;1241;50.920;6.936;2023-04-01T02:05:08;18.27;;;13.45;;
2458;SDS011;1241;50.920;6.936;2023-04-01T02:07:38;19.25;;;14.55;;
2458;SDS011;1241;50.920;6.936;2023-04-01T02:10:06;21.25;;;16.55;;
2458;SDS011;1241;50.920;6.936;2023-04-01T02:12:32;19.07;;;14.43;;
2458;SDS011;1241;50.920;6.936;2023-04-01T02:15:03;15.57;;;11.80;;
2458;SDS011;1241;50.920;6.936;2023-04-01T02:17:33;17.55;;;13.27;;
2458;SDS011;1241;50.920;6.936;2023-04-01T02:22:32;22.45;;;16.17;;
2458;SDS011;1241;50.920;6.936;2023-04-01T02:25:02;28.10;;;21.35;;
2458;SDS011;1241;50.920;6.936;2023-04-01T02:27:31;26.98;;;19.15;;
2458;SDS011;1241;50.920;6.936;2023-04-01T02:29:58;23.90;;;16.88;;
2458;SDS011;1241;50.920;6.936;2023-04-01T02:32:24;26.63;;;19.48;;
2458;SDS011;1241;50.920;6.936;2023-04-01T02:34:52;20.23;;;15.15;;
2458;SDS011;1241;50.920;6.936;2023-04-01T02:37:18;22.93;;;16.27;;
2458;SDS011;1241;50.920;6.936;2023-04-01T02:39:44;16.77;;;13.15;;
2458;SDS011;1241;50.920;6.936;2023-04-01T02:42:10;20.67;;;15.07;;
2458;SDS011;1241;50.920;6.936;2023-04-01T02:44:36;31.92;;;21.75;;
2458;SDS011;1241;50.920;6.936;2023-04-01T02:47:02;23.90;;;16.88;;
2458;SDS011;1241;50.920;6.936;2023-04-01T02:49:28;14.40;;;10.90;;
2458;SDS011;1241;50.920;6.936;2023-04-01T02:51:54;20.38;;;15.38;;
2458;SDS011;1241;50.920;6.936;2023-04-01T02:54:20;14.40;;;11.50;;
2458;SDS011;1241;50.920;6.936;2023-04-01T02:56:45;18.30;;;14.32;;
2458;SDS011;1241;50.920;6.936;2023-04-01T02:59:11;21.20;;;15.88;;
2458;SDS011;1241;50.920;6.936;2023-04-01T03:01:37;19.77;;;14.50;;
2458;SDS011;1241;50.920;6.936;2023-04-01T03:04:03;19.92;;;14.10;;
2458;SDS011;1241;50.920;6.936;2023-04-01T03:06:30;24.38;;;17.48;;
2458;SDS011;1241;50.920;6.936;2023-04-01T03:08:56;23.17;;;16.73;;
2458;SDS011;1241;50.920;6.936;2023-04-01T03:11:21;25.97;;;20.57;;
2458;SDS011;1241;50.920;6.936;2023-04-01T03:13:47;20.73;;;15.82;;
2458;SDS011;1241;50.920;6.936;2023-04-01T03:16:14;19.90;;;16.65;;
2458;SDS011;1241;50.920;6.936;2023-04-01T03:18:40;17.50;;;14.07;;
2458;SDS011;1241;50.920;6.936;2023-04-01T03:21:19;16.80;;;12.95;;
2458;SDS011;1241;50.920;6.936;2023-04-01T03:23:46;27.05;;;21.48;;
2458;SDS011;1241;50.920;6.936;2023-04-01T03:26:11;18.17;;;13.87;;
2458;SDS011;1241;50.920;6.936;2023-04-01T03:28:38;26.73;;;20.55;;
2458;SDS011;1241;50.920;6.936;2023-04-01T03:31:04;21.13;;;16.00;;
2458;SDS011;1241;50.920;6.936;2023-04-01T03:33:37;19.00;;;15.20;;
2458;SDS011;1241;50.920;6.936;2023-04-01T03:36:03;16.27;;;13.00;;
2458;SDS011;1241;50.920;6.936;2023-04-01T03:38:32;17.92;;;13.15;;
2458;SDS011;1241;50.920;6.936;2023-04-01T03:41:01;20.05;;;15.57;;
2458;SDS011;1241;50.920;6.936;2023-04-01T03:43:28;18.73;;;14.13;;
2458;SDS011;1241;50.920;6.936;2023-04-01T03:45:54;23.85;;;18.30;;
2458;SDS011;1241;50.920;6.936;2023-04-01T03:48:22;24.50;;;18.83;;
2458;SDS011;1241;50.920;6.936;2023-04-01T03:50:48;30.20;;;22.63;;
2458;SDS011;1241;50.920;6.936;2023-04-01T03:53:14;14.75;;;9.85;;
2458;SDS011;1241;50.920;6.936;2023-04-01T03:55:44;11.10;;;8.13;;
2458;SDS011;1241;50.920;6.936;2023-04-01T03:58:09;21.25;;;16.08;;
2458;SDS011;1241;50.920;6.936;2023-04-01T04:00:35;17.08;;;13.38;;
2458;SDS011;1241;50.920;6.936;2023-04-01T04:03:02;18.90;;;14.82;;
2458;SDS011;1241;50.920;6.936;2023-04-01T04:05:31;18.70;;;14.93;;
2458;SDS011;1241;50.920;6.936;2023-04-01T04:07:57;19.60;;;16.03;;
2458;SDS011;1241;50.920;6.936;2023-04-01T04:10:23;17.33;;;12.80;;
2458;SDS011;1241;50.920;6.936;2023-04-01T04:12:50;10.57;;;8.75;;
2458;SDS011;1241;50.920;6.936;2023-04-01T04:15:18;15.45;;;10.85;;
2458;SDS011;1241;50.920;6.936;2023-04-01T04:17:44;21.05;;;15.50;;
2458;SDS011;1241;50.920;6.936;2023-04-01T04:20:11;16.40;;;12.32;;
2458;SDS011;1241;50.920;6.936;2023-04-01T04:22:37;18.60;;;16.02;;
2458;SDS011;1241;50.920;6.936;2023-04-01T04:25:05;23.95;;;16.60;;
2458;SDS011;1241;50.920;6.936;2023-04-01T04:27:32;19.80;;;14.70;;
2458;SDS011;1241;50.920;6.936;2023-04-01T04:30:16;15.60;;;11.60;;
2458;SDS011;1241;50.920;6.936;2023-04-01T04:32:42;8.70;;;6.70;;
2458;SDS011;1241;50.920;6.936;2023-04-01T04:35:10;20.85;;;15.23;;
2458;SDS011;1241;50.920;6.936;2023-04-01T04:37:36;18.02;;;13.63;;
2458;SDS011;1241;50.920;6.936;2023-04-01T04:40:02;21.27;;;16.40;;
2458;SDS011;1241;50.920;6.936;2023-04-01T04:42:28;16.60;;;12.68;;
2458;SDS011;1241;50.920;6.936;2023-04-01T04:44:59;14.98;;;11.18;;
2458;SDS011;1241;50.920;6.936;2023-04-01T04:47:26;13.75;;;11.40;;
2458;SDS011;1241;50.920;6.936;2023-04-01T04:49:51;17.60;;;13.33;;
2458;SDS011;1241;50.920;6.936;2023-04-01T04:52:17;13.65;;;11.38;;
2458;SDS011;1241;50.920;6.936;2023-04-01T04:54:43;16.88;;;13.20;;
2458;SDS011;1241;50.920;6.936;2023-04-01T04:57:09;20.45;;;14.52;;
2458;SDS011;1241;50.920;6.936;2023-04-01T04:59:42;15.23;;;11.43;;
2458;SDS011;1241;50.920;6.936;2023-04-01T05:02:15;13.52;;;10.15;;
2458;SDS011;1241;50.920;6.936;2023-04-01T05:04:41;17.85;;;12.85;;
2458;SDS011;1241;50.920;6.936;2023-04-01T05:07:09;19.58;;;15.40;;
2458;SDS011;1241;50.920;6.936;2023-04-01T05:09:34;20.53;;;15.30;;
2458;SDS011;1241;50.920;6.936;2023-04-01T05:12:01;7.05;;;6.05;;
2458;SDS011;1241;50.920;6.936;2023-04-01T05:14:37;11.65;;;8.70;;
2458;SDS011;1241;50.920;6.936;2023-04-01T05:17:11;11.55;;;9.15;;
2458;SDS011;1241;50.920;6.936;2023-04-01T05:19:38;13.63;;;11.20;;
2458;SDS011;1241;50.920;6.936;2023-04-01T05:22:04;12.90;;;10.10;;
2458;SDS011;1241;50.920;6.936;2023-04-01T05:24:31;7.55;;;6.30;;
2458;SDS011;1241;50.920;6.936;2023-04-01T05:26:58;7.97;;;5.97;;
2458;SDS011;1241;50.920;6.936;2023-04-01T05:29:25;13.77;;;10.43;;
2458;SDS011;1241;50.920;6.936;2023-04-01T05:31:57;7.10;;;5.53;;
2458;SDS011;1241;50.920;6.936;2023-04-01T05:34:23;12.50;;;8.60;;
2458;SDS011;1241;50.920;6.936;2023-04-01T05:36:49;14.98;;;12.25;;
2458;SDS011;1241;50.920;6.936;2023-04-01T05:39:16;9.05;;;7.25;;
2458;SDS011;1241;50.920;6.936;2023-04-01T05:41:42;9.80;;;7.93;;
2458;SDS011;1241;50.920;6.936;2023-04-01T05:44:10;13.70;;;10.10;;
2458;SDS011;1241;50.920;6.936;2023-04-01T05:46:40;12.90;;;9.60;;
2458;SDS011;1241;50.920;6.936;2023-04-01T05:49:19;13.73;;;9.55;;
2458;SDS011;1241;50.920;6.936;2023-04-01T05:51:44;15.23;;;11.63;;
2458;SDS011;1241;50.920;6.936;2023-04-01T05:54:10;9.45;;;5.88;;
2458;SDS011;1241;50.920;6.936;2023-04-01T05:56:37;12.88;;;9.68;;
2458;SDS011;1241;50.920;6.936;2023-04-01T05:59:03;10.35;;;7.45;;
2458;SDS011;1241;50.920;6.936;2023-04-01T06:01:28;13.38;;;9.90;;
2458;SDS011;1241;50.920;6.936;2023-04-01T06:03:54;13.67;;;11.70;;
2458;SDS011;1241;50.920;6.936;2023-04-01T06:06:24;16.07;;;11.53;;
2458;SDS011;1241;50.920;6.936;2023-04-01T06:08:55;14.90;;;10.63;;
2458;SDS011;1241;50.920;6.936;2023-04-01T06:11:37;15.63;;;11.80;;
2458;SDS011;1241;50.920;6.936;2023-04-01T06:17:21;8.13;;;7.32;;
2458;SDS011;1241;50.920;6.936;2023-04-01T06:26:09;10.98;;;8.55;;
2458;SDS011;1241;50.920;6.936;2023-04-01T06:28:49;8.57;;;6.88;;
2458;SDS011;1241;50.920;6.936;2023-04-01T06:36:39;12.93;;;9.13;;
2458;SDS011;1241;50.920;6.936;2023-04-01T06:42:09;7.57;;;6.82;;
2458;SDS011;1241;50.920;6.936;2023-04-01T06:44:43;8.13;;;6.82;;
2458;SDS011;1241;50.920;6.936;2023-04-01T06:54:08;10.97;;;7.50;;
2458;SDS011;1241;50.920;6.936;2023-04-01T06:57:12;6.72;;;5.70;;
2458;SDS011;1241;50.920;6.936;2023-04-01T06:59:51;7.97;;;5.70;;
2458;SDS011;1241;50.920;6.936;2023-04-01T07:05:06;10.32;;;9.07;;
2458;SDS011;1241;50.920;6.936;2023-04-01T07:07:35;8.77;;;6.65;;
2458;SDS011;1241;50.920;6.936;2023-04-01T07:10:11;7.20;;;6.40;;
2458;SDS011;1241;50.920;6.936;2023-04-01T07:13:06;9.75;;;8.13;;
2458;SDS011;1241;50.920;6.936;2023-04-01T07:16:03;10.68;;;7.80;;
2458;SDS011;1241;50.920;6.936;2023-04-01T07:21:16;8.43;;;6.60;;
2458;SDS011;1241;50.920;6.936;2023-04-01T07:23:59;6.32;;;5.60;;
2458;SDS011;1241;50.920;6.936;2023-04-01T07:26:49;9.65;;;6.45;;
2458;SDS011;1241;50.920;6.936;2023-04-01T07:29:25;9.10;;;6.93;;
2458;SDS011;1241;50.920;6.936;2023-04-01T07:37:17;8.15;;;5.57;;
2458;SDS011;1241;50.920;6.936;2023-04-01T07:39:53;7.72;;;5.90;;
2458;SDS011;1241;50.920;6.936;2023-04-01T07:49:12;5.30;;;4.60;;
2458;SDS011;1241;50.920;6.936;2023-04-01T07:54:18;5.60;;;4.90;;
2458;SDS011;1241;50.920;6.936;2023-04-01T07:56:57;8.15;;;5.97;;
2458;SDS011;1241;50.920;6.936;2023-04-01T08:14:27;5.20;;;4.63;;
2458;SDS011;1241;50.920;6.936;2023-04-01T08:22:59;5.82;;;5.22;;
2458;SDS011;1241;50.920;6.936;2023-04-01T08:25:35;5.70;;;4.40;;
2458;SDS011;1241;50.920;6.936;2023-04-01T08:33:25;7.00;;;6.05;;
2458;SDS011;1241;50.920;6.936;2023-04-01T08:36:20;6.93;;;5.45;;
2458;SDS011;1241;50.920;6.936;2023-04-01T08:39:18;7.35;;;5.90;;
2458;SDS011;1241;50.920;6.936;2023-04-01T08:56:14;7.00;;;6.30;;
2458;SDS011;1241;50.920;6.936;2023-04-01T09:07:49;6.43;;;5.22;;
2458;SDS011;1241;50.920;6.936;2023-04-01T09:28:25;10.10;;;8.30;;
2458;SDS011;1241;50.920;6.936;2023-04-01T09:30:48;7.55;;;5.93;;
2458;SDS011;1241;50.920;6.936;2023-04-01T09:36:07;7.25;;;6.07;;
2458;SDS011;1241;50.920;6.936;2023-04-01T09:38:41;12.35;;;9.25;;
2458;SDS011;1241;50.920;6.936;2023-04-01T09:41:30;8.90;;;7.38;;
2458;SDS011;1241;50.920;6.936;2023-04-01T09:44:14;6.18;;;4.65;;
2458;SDS011;1241;50.920;6.936;2023-04-01T09:49:54;6.60;;;5.05;;
2458;SDS011;1241;50.920;6.936;2023-04-01T09:52:26;8.18;;;6.35;;
2458;SDS011;1241;50.920;6.936;2023-04-01T10:01:29;4.35;;;3.60;;
2458;SDS011;1241;50.920;6.936;2023-04-01T10:12:49;9.30;;;7.28;;
2458;SDS011;1241;50.920;6.936;2023-04-01T10:21:59;5.35;;;4.38;;
2458;SDS011;1241;50.920;6.936;2023-04-01T10:24:49;6.25;;;4.63;;
2458;SDS011;1241;50.920;6.936;2023-04-01T11:00:37;6.00;;;5.33;;
2458;SDS011;1241;50.920;6.936;2023-04-01T11:09:25;8.30;;;6.88;;
2458;SDS011;1241;50.920;6.936;2023-04-01T11:20:19;5.00;;;4.15;;
2458;SDS011;1241;50.920;6.936;2023-04-01T11:26:00;9.90;;;8.90;;
2458;SDS011;1241;50.920;6.936;2023-04-01T11:29:29;9.52;;;7.97;;
2458;SDS011;1241;50.920;6.936;2023-04-01T11:31:47;10.30;;;8.05;;
2458;SDS011;1241;50.920;6.936;2023-04-01T11:46:16;7.53;;;6.78;;
2458;SDS011;1241;50.920;6.936;2023-04-01T11:49:13;9.50;;;7.25;;
2458;SDS011;1241;50.920;6.936;2023-04-01T11:57:46;7.47;;;5.90;;
2458;SDS011;1241;50.920;6.936;2023-04-01T12:09:46;10.43;;;8.40;;
2458;SDS011;1241;50.920;6.936;2023-04-01T12:17:43;11.07;;;8.48;;
2458;SDS011;1241;50.920;6.936;2023-04-01T12:26:28;6.80;;;6.10;;
2458;SDS011;1241;50.920;6.936;2023-04-01T12:35:18;6.50;;;5.00;;
2458;SDS011;1241;50.920;6.936;2023-04-01T12:37:57;8.00;;;6.68;;
2458;SDS011;1241;50.920;6.936;2023-04-01T12:51:50;14.05;;;11.65;;
2458;SDS011;1241;50.920;6.936;2023-04-01T12:54:02;9.10;;;7.70;;
2458;SDS011;1241;50.920;6.936;2023-04-01T13:07:12;6.25;;;5.35;;
2458;SDS011;1241;50.920;6.936;2023-04-01T13:10:20;10.75;;;8.65;;
2458;SDS011;1241;50.920;6.936;2023-04-01T13:15:58;12.50;;;10.60;;
2458;SDS011;1241;50.920;6.936;2023-04-01T13:21:34;5.75;;;5.20;;
2458;SDS011;1241;50.920;6.936;2023-04-01T13:29:21;7.95;;;6.80;;
2458;SDS011;1241;50.920;6.936;2023-04-01T13:43:18;8.32;;;7.38;;
2458;SDS011;1241;50.920;6.936;2023-04-01T13:46:09;15.27;;;12.45;;
2458;SDS011;1241;50.920;6.936;2023-04-01T13:49:18;10.35;;;9.35;;
2458;SDS011;1241;50.920;6.936;2023-04-01T13:51:55;12.30;;;11.02;;
2458;SDS011;1241;50.920;6.936;2023-04-01T13:54:32;17.08;;;13.25;;
2458;SDS011;1241;50.920;6.936;2023-04-01T13:57:49;7.95;;;7.10;;
2458;SDS011;1241;50.920;6.936;2023-04-01T14:03:04;11.18;;;9.82;;
2458;SDS011;1241;50.920;6.936;2023-04-01T14:17:35;11.75;;;10.50;;
2458;SDS011;1241;50.920;6.936;2023-04-01T14:20:28;16.98;;;13.80;;
2458;SDS011;1241;50.920;6.936;2023-04-01T14:23:04;11.25;;;10.05;;
2458;SDS011;1241;50.920;6.936;2023-04-01T14:33:50;17.23;;;13.77;;
2458;SDS011;1241;50.920;6.936;2023-04-01T14:36:52;10.02;;;8.88;;
2458;SDS011;1241;50.920;6.936;2023-04-01T14:39:33;8.70;;;7.10;;
2458;SDS011;1241;50.920;6.936;2023-04-01T14:47:58;19.53;;;14.77;;
2458;SDS011;1241;50.920;6.936;2023-04-01T14:50:45;13.32;;;11.13;;
2458;SDS011;1241;50.920;6.936;2023-04-01T14:53:31;17.63;;;14.98;;
2458;SDS011;1241;50.920;6.936;2023-04-01T14:56:03;25.00;;;20.63;;
2458;SDS011;1241;50.920;6.936;2023-04-01T14:58:46;11.40;;;9.95;;
2458;SDS011;1241;50.920;6.936;2023-04-01T15:19:57;10.83;;;9.27;;
2458;SDS011;1241;50.920;6.936;2023-04-01T15:28:28;12.57;;;10.37;;
2458;SDS011;1241;50.920;6.936;2023-04-01T15:38:57;10.88;;;9.60;;
2458;SDS011;1241;50.920;6.936;2023-04-01T15:46:56;13.25;;;11.77;;
2458;SDS011;1241;50.920;6.936;2023-04-01T15:49:27;11.40;;;9.80;;
2458;SDS011;1241;50.920;6.936;2023-04-01T15:55:09;10.30;;;8.50;;
2458;SDS011;1241;50.920;6.936;2023-04-01T15:57:44;10.48;;;9.38;;
2458;SDS011;1241;50.920;6.936;2023-04-01T16:19:33;15.97;;;13.40;;
2458;SDS011;1241;50.920;6.936;2023-04-01T16:25:05;13.48;;;11.00;;
2458;SDS011;1241;50.920;6.936;2023-04-01T16:33:58;11.18;;;9.52;;
2458;SDS011;1241;50.920;6.936;2023-04-01T16:36:44;13.00;;;11.13;;
2458;SDS011;1241;50.920;6.936;2023-04-01T16:39:27;11.77;;;9.73;;
2458;SDS011;1241;50.920;6.936;2023-04-01T16:42:17;10.40;;;8.68;;
2458;SDS011;1241;50.920;6.936;2023-04-01T16:44:55;11.10;;;9.50;;
2458;SDS011;1241;50.920;6.936;2023-04-01T16:47:40;10.02;;;8.77;;
2458;SDS011;1241;50.920;6.936;2023-04-01T16:50:44;15.00;;;12.50;;
2458;SDS011;1241;50.920;6.936;2023-04-01T16:56:19;19.70;;;15.38;;
2458;SDS011;1241;50.920;6.936;2023-04-01T17:01:36;16.38;;;14.13;;
2458;SDS011;1241;50.920;6.936;2023-04-01T17:18:13;15.52;;;12.00;;
2458;SDS011;1241;50.920;6.936;2023-04-01T17:26:16;13.38;;;10.13;;
2458;SDS011;1241;50.920;6.936;2023-04-01T17:28:56;8.75;;;7.85;;
2458;SDS011;1241;50.920;6.936;2023-04-01T17:31:33;21.90;;;17.50;;
2458;SDS011;1241;50.920;6.936;2023-04-01T17:53:59;15.83;;;13.73;;
2458;SDS011;1241;50.920;6.936;2023-04-01T17:56:32;12.52;;;11.23;;
2458;SDS011;1241;50.920;6.936;2023-04-01T17:59:26;13.55;;;11.95;;
2458;SDS011;1241;50.920;6.936;2023-04-01T18:02:21;12.82;;;10.55;;
2458;SDS011;1241;50.920;6.936;2023-04-01T18:10:29;13.47;;;12.07;;
2458;SDS011;1241;50.920;6.936;2023-04-01T18:15:59;16.60;;;14.68;;
2458;SDS011;1241;50.920;6.936;2023-04-01T18:24:00;20.52;;;15.50;;
2458;SDS011;1241;50.920;6.936;2023-04-01T18:26:36;18.33;;;15.15;;
2458;SDS011;1241;50.920;6.936;2023-04-01T18:32:17;31.35;;;24.45;;
2458;SDS011;1241;50.920;6.936;2023-04-01T18:37:51;29.65;;;25.00;;
2458;SDS011;1241;50.920;6.936;2023-04-01T18:40:34;27.33;;;21.95;;
2458;SDS011;1241;50.920;6.936;2023-04-01T18:45:51;22.10;;;18.58;;
2458;SDS011;1241;50.920;6.936;2023-04-01T18:51:17;18.25;;;15.88;;
2458;SDS011;1241;50.920;6.936;2023-04-01T18:59:25;23.90;;;20.83;;
2458;SDS011;1241;50.920;6.936;2023-04-01T19:05:09;22.65;;;20.25;;
2458;SDS011;1241;50.920;6.936;2023-04-01T19:07:55;23.77;;;20.63;;
2458;SDS011;1241;50.920;6.936;2023-04-01T19:16:07;23.70;;;18.42;;
2458;SDS011;1241;50.920;6.936;2023-04-01T19:21:56;26.35;;;22.10;;
2458;SDS011;1241;50.920;6.936;2023-04-01T19:27:17;26.52;;;22.60;;
2458;SDS011;1241;50.920;6.936;2023-04-01T19:29:54;27.23;;;24.17;;
2458;SDS011;1241;50.920;6.936;2023-04-01T19:35:18;20.70;;;17.60;;
2458;SDS011;1241;50.920;6.936;2023-04-01T19:37:50;22.10;;;19.48;;
2458;SDS011;1241;50.920;6.936;2023-04-01T19:43:18;16.55;;;14.88;;
2458;SDS011;1241;50.920;6.936;2023-04-01T20:05:26;30.67;;;26.67;;
2458;SDS011;1241;50.920;6.936;2023-04-01T20:11:05;19.67;;;16.97;;
2458;SDS011;1241;50.920;6.936;2023-04-01T20:22:05;21.45;;;18.13;;
2458;SDS011;1241;50.920;6.936;2023-04-01T20:24:47;19.95;;;16.55;;
2458;SDS011;1241;50.920;6.936;2023-04-01T20:35:37;27.45;;;21.50;;
2458;SDS011;1241;50.920;6.936;2023-04-01T20:41:02;25.00;;;22.23;;
2458;SDS011;1241;50.920;6.936;2023-04-01T20:46:38;19.20;;;16.98;;
2458;SDS011;1241;50.920;6.936;2023-04-01T20:54:47;26.48;;;21.83;;
2458;SDS011;1241;50.920;6.936;2023-04-01T21:03:10;35.63;;;29.08;;
2458;SDS011;1241;50.920;6.936;2023-04-01T21:05:59;18.70;;;16.15;;
2458;SDS011;1241;50.920;6.936;2023-04-01T21:11:20;22.27;;;17.42;;
2458;SDS011;1241;50.920;6.936;2023-04-01T21:14:12;35.67;;;30.33;;
2458;SDS011;1241;50.920;6.936;2023-04-01T21:55:18;24.30;;;21.02;;
2458;SDS011;1241;50.920;6.936;2023-04-01T21:58:38;23.58;;;17.73;;
2458;SDS011;1241;50.920;6.936;2023-04-01T22:06:31;30.35;;;25.85;;
2458;SDS011;1241;50.920;6.936;2023-04-01T22:09:31;14.43;;;12.60;;
2458;SDS011;1241;50.920;6.936;2023-04-01T22:23:01;26.52;;;22.52;;
2458;SDS011;1241;50.920;6.936;2023-04-01T22:28:12;22.23;;;19.87;;
2458;SDS011;1241;50.920;6.936;2023-04-01T22:30:50;34.42;;;29.60;;
2458;SDS011;1241;50.920;6.936;2023-04-01T22:33:34;24.80;;;21.07;;
2458;SDS011;1241;50.920;6.936;2023-04-01T22:36:37;22.52;;;19.65;;
2458;SDS011;1241;50.920;6.936;2023-04-01T22:55:40;41.72;;;34.38;;
2458;SDS011;1241;50.920;6.936;2023-04-01T22:58:13;42.35;;;34.85;;
2458;SDS011;1241;50.920;6.936;2023-04-01T23:00:45;33.40;;;29.53;;
2458;SDS011;1241;50.920;6.936;2023-04-01T23:03:21;37.88;;;31.63;;
2458;SDS011;1241;50.920;6.936;2023-04-01T23:05:53;32.30;;;27.25;;
2458;SDS011;1241;50.920;6.936;2023-04-01T23:11:21;43.95;;;35.30;;
2458;SDS011;1241;50.920;6.936;2023-04-01T23:14:06;28.73;;;23.55;;
2458;SDS011;1241;50.920;6.936;2023-04-01T23:16:43;40.85;;;34.95;;
2458;SDS011;1241;50.920;6.936;2023-04-01T23:19:37;42.53;;;34.83;;
2458;SDS011;1241;50.920;6.936;2023-04-01T23:25:23;29.85;;;24.85;;
2458;SDS011;1241;50.920;6.936;2023-04-01T23:33:10;32.03;;;27.07;;
2458;SDS011;1241;50.920;6.936;2023-04-01T23:35:46;36.72;;;29.75;;
2458;SDS011;1241;50.920;6.936;2023-04-01T23:38:18;26.40;;;22.58;;
2458;SDS011;1241;50.920;6.936;2023-04-01T23:40:47;34.00;;;28.33;;
2458;SDS011;1241;50.920;6.936;2023-04-01T23:43:29;22.23;;;18.47;;
2458;SDS011;1241;50.920;6.936;2023-04-01T23:45:59;28.13;;;23.73;;
2458;SDS011;1241;50.920;6.936;2023-04-01T23:48:30;12.00;;;10.75;;
2458;SDS011;1241;50.920;6.936;2023-04-01T23:51:10;9.70;;;8.80;;
2458;SDS011;1241;50.920;6.936;2023-04-01T23:53:47;14.52;;;12.85;;
2458;SDS011;1241;50.920;6.936;2023-04-01T23:56:20;20.08;;;16.90;;
2458;SDS011;1241;50.920;6.936;2023-04-01T23:58:47;29.38;;;25.58;;
